Estación Meteorológica Peña el Pijo (Robertgarden) [ 04/22/18 23:45:40 CEST ]

Fecha Hora Presion(HPa) Temp (°C) Humedad % Rocio (°C) Viento ( m/s) Direccion Lluvia 1Hora(mm) Lluvia 24H(mm) LLuvia Total(mm)
2018-Feb-19 01:01:35 1007.500 4.1 83 1.5         82.36
2018-Feb-19 02:01:46 1007.000 3.9 84 1.4         82.36
2018-Feb-19 03:03:11 1006.700 4.1 85 1.8         82.36
2018-Feb-19 04:01:42 1006.300 4.2 85 1.9         82.36
2018-Feb-19 05:01:36 1006.000 4.1 85 1.8         82.36
2018-Feb-19 06:01:34 1006.200 3.5 85 1.2         82.36
2018-Feb-19 07:01:53 1005.900 2.9 85 0.6         82.36
2018-Feb-19 08:01:18 1006.300 2.1 85 -0.2         82.36
2018-Feb-19 09:01:40 1006.500 2.5 86 0.4         82.36
2018-Feb-19 10:01:15 1006.500 3.8 86 1.6         82.36
2018-Feb-19 11:01:28 1006.700 5.6 83 2.9         82.36
2018-Feb-19 12:01:12 1006.800 9.5 75 5.4         82.36
2018-Feb-19 13:01:39 1005.900 11.4 58 3.4         82.36
2018-Feb-19 14:01:29 1005.500 12.9 43 0.5         82.36
2018-Feb-19 15:01:50 1005.100 13.8 36 -1.1         82.36
2018-Feb-19 16:01:47 1004.900 13.9 40 0.5         82.36
2018-Feb-19 17:01:49 1004.800 12.8 43 0.4         82.36
2018-Feb-19 18:01:43 1004.800 10.9 49 0.6         82.36
2018-Feb-19 19:02:03 1005.400 9.1 55 0.5         82.36
2018-Feb-19 20:01:44 1005.900 6.1 62 -0.7         82.36
2018-Feb-19 21:01:50 1006.200 4.1 68 -1.3         82.36
2018-Feb-19 22:01:56 1006.400 3.0 72 -1.5         82.36
2018-Feb-19 23:01:46 1006.400 3.1 75 -0.9         82.36

Temperatura Máxima:13°    Temperatura Mínima:
Presión Máxima:1007.500 Hpa    Presión Mínima:1004.800 Hpa


Volver